sensor_id;sensor_type;location;lat;lon;timestamp;temperature;humidity
65245;DHT22;51846;48.692;2.382;2022-09-20T00:00:44;13.06;64.89
65245;DHT22;51846;48.692;2.382;2022-09-20T00:03:11;13.06;64.77
65245;DHT22;51846;48.692;2.382;2022-09-20T00:05:39;13.02;65.17
65245;DHT22;51846;48.692;2.382;2022-09-20T00:08:06;12.98;65.22
65245;DHT22;51846;48.692;2.382;2022-09-20T00:10:33;12.98;65.34
65245;DHT22;51846;48.692;2.382;2022-09-20T00:13:02;12.93;65.59
65245;DHT22;51846;48.692;2.382;2022-09-20T00:15:28;12.89;65.72
65245;DHT22;51846;48.692;2.382;2022-09-20T00:17:54;12.86;65.82
65245;DHT22;51846;48.692;2.382;2022-09-20T00:20:19;12.86;65.87
65245;DHT22;51846;48.692;2.382;2022-09-20T00:22:45;12.82;66.11
65245;DHT22;51846;48.692;2.382;2022-09-20T00:25:14;12.75;66.31
65245;DHT22;51846;48.692;2.382;2022-09-20T00:27:40;12.74;66.30
65245;DHT22;51846;48.692;2.382;2022-09-20T00:30:06;12.71;66.35
65245;DHT22;51846;48.692;2.382;2022-09-20T00:32:31;12.71;66.55
65245;DHT22;51846;48.692;2.382;2022-09-20T00:34:56;12.65;66.80
65245;DHT22;51846;48.692;2.382;2022-09-20T00:37:39;12.65;66.88
65245;DHT22;51846;48.692;2.382;2022-09-20T00:40:07;12.62;67.05
65245;DHT22;51846;48.692;2.382;2022-09-20T00:42:33;12.58;67.21
65245;DHT22;51846;48.692;2.382;2022-09-20T00:45:01;12.58;67.08
65245;DHT22;51846;48.692;2.382;2022-09-20T00:47:35;12.55;67.15
65245;DHT22;51846;48.692;2.382;2022-09-20T00:52:32;12.46;67.65
65245;DHT22;51846;48.692;2.382;2022-09-20T00:54:58;12.42;67.91
65245;DHT22;51846;48.692;2.382;2022-09-20T00:57:24;12.40;68.07
65245;DHT22;51846;48.692;2.382;2022-09-20T00:59:50;12.40;67.97
65245;DHT22;51846;48.692;2.382;2022-09-20T01:02:25;12.40;67.96
65245;DHT22;51846;48.692;2.382;2022-09-20T01:04:51;12.34;68.23
65245;DHT22;51846;48.692;2.382;2022-09-20T01:07:20;12.35;68.34
65245;DHT22;51846;48.692;2.382;2022-09-20T01:09:47;12.34;68.48
65245;DHT22;51846;48.692;2.382;2022-09-20T01:12:17;12.30;68.42
65245;DHT22;51846;48.692;2.382;2022-09-20T01:14:44;12.27;68.62
65245;DHT22;51846;48.692;2.382;2022-09-20T01:17:11;12.20;68.80
65245;DHT22;51846;48.692;2.382;2022-09-20T01:28:26;12.10;69.13
65245;DHT22;51846;48.692;2.382;2022-09-20T01:31:02;12.03;69.49
65245;DHT22;51846;48.692;2.382;2022-09-20T01:33:51;12.04;69.52
65245;DHT22;51846;48.692;2.382;2022-09-20T01:36:22;12.08;68.92
65245;DHT22;51846;48.692;2.382;2022-09-20T01:39:06;12.13;68.94
65245;DHT22;51846;48.692;2.382;2022-09-20T01:41:37;12.11;69.16
65245;DHT22;51846;48.692;2.382;2022-09-20T01:44:14;12.13;69.27
65245;DHT22;51846;48.692;2.382;2022-09-20T01:46:42;12.14;69.18
65245;DHT22;51846;48.692;2.382;2022-09-20T01:52:36;12.07;69.34
65245;DHT22;51846;48.692;2.382;2022-09-20T01:58:21;12.04;69.59
65245;DHT22;51846;48.692;2.382;2022-09-20T02:20:31;11.71;71.03
65245;DHT22;51846;48.692;2.382;2022-09-20T02:26:04;11.55;71.92
65245;DHT22;51846;48.692;2.382;2022-09-20T02:36:50;11.40;72.73
65245;DHT22;51846;48.692;2.382;2022-09-20T02:40:01;11.38;72.74
65245;DHT22;51846;48.692;2.382;2022-09-20T02:42:37;11.33;73.02
65245;DHT22;51846;48.692;2.382;2022-09-20T02:45:39;11.30;73.13
65245;DHT22;51846;48.692;2.382;2022-09-20T02:48:06;11.29;73.06
65245;DHT22;51846;48.692;2.382;2022-09-20T02:56:10;11.22;73.28
65245;DHT22;51846;48.692;2.382;2022-09-20T02:58:45;11.23;73.02
65245;DHT22;51846;48.692;2.382;2022-09-20T03:03:50;11.25;72.98
65245;DHT22;51846;48.692;2.382;2022-09-20T03:09:42;11.05;74.07
65245;DHT22;51846;48.692;2.382;2022-09-20T03:12:20;11.11;74.00
65245;DHT22;51846;48.692;2.382;2022-09-20T03:17:46;11.09;73.94
65245;DHT22;51846;48.692;2.382;2022-09-20T03:42:22;10.89;74.77
65245;DHT22;51846;48.692;2.382;2022-09-20T03:50:31;10.96;74.47
65245;DHT22;51846;48.692;2.382;2022-09-20T03:58:44;10.92;74.47
65245;DHT22;51846;48.692;2.382;2022-09-20T04:04:06;10.89;74.42
65245;DHT22;51846;48.692;2.382;2022-09-20T04:06:47;10.85;74.50
65245;DHT22;51846;48.692;2.382;2022-09-20T04:09:50;10.85;74.70
65245;DHT22;51846;48.692;2.382;2022-09-20T04:20:51;10.65;75.40
65245;DHT22;51846;48.692;2.382;2022-09-20T04:23:38;10.63;75.47
65245;DHT22;51846;48.692;2.382;2022-09-20T04:26:07;10.61;75.73
65245;DHT22;51846;48.692;2.382;2022-09-20T04:28:46;10.58;75.68
65245;DHT22;51846;48.692;2.382;2022-09-20T04:33:58;10.48;76.50
65245;DHT22;51846;48.692;2.382;2022-09-20T04:36:56;10.45;76.20
65245;DHT22;51846;48.692;2.382;2022-09-20T04:50:43;10.29;77.04
65245;DHT22;51846;48.692;2.382;2022-09-20T04:53:38;10.29;77.00
65245;DHT22;51846;48.692;2.382;2022-09-20T05:03:57;10.21;77.14
65245;DHT22;51846;48.692;2.382;2022-09-20T05:20:06;10.11;77.50
65245;DHT22;51846;48.692;2.382;2022-09-20T05:28:38;10.09;77.60
65245;DHT22;51846;48.692;2.382;2022-09-20T05:34:03;10.07;77.77
65245;DHT22;51846;48.692;2.382;2022-09-20T05:39:41;10.03;77.98
65245;DHT22;51846;48.692;2.382;2022-09-20T05:50:46;10.01;78.46
65245;DHT22;51846;48.692;2.382;2022-09-20T06:01:57;10.06;78.42
65245;DHT22;51846;48.692;2.382;2022-09-20T06:04:57;10.07;78.27
65245;DHT22;51846;48.692;2.382;2022-09-20T06:15:21;10.09;78.80
65245;DHT22;51846;48.692;2.382;2022-09-20T06:17:58;10.10;78.95
65245;DHT22;51846;48.692;2.382;2022-09-20T06:20:28;10.14;79.27
65245;DHT22;51846;48.692;2.382;2022-09-20T06:22:57;10.18;79.12
65245;DHT22;51846;48.692;2.382;2022-09-20T06:25:37;10.30;78.85
65245;DHT22;51846;48.692;2.382;2022-09-20T06:30:39;10.44;79.15
65245;DHT22;51846;48.692;2.382;2022-09-20T06:38:33;10.72;80.65
65245;DHT22;51846;48.692;2.382;2022-09-20T06:41:19;10.84;80.26
65245;DHT22;51846;48.692;2.382;2022-09-20T06:43:56;10.85;78.46
65245;DHT22;51846;48.692;2.382;2022-09-20T06:46:23;10.94;77.68
65245;DHT22;51846;48.692;2.382;2022-09-20T06:48:48;11.16;78.20
65245;DHT22;51846;48.692;2.382;2022-09-20T06:51:14;11.26;77.34
65245;DHT22;51846;48.692;2.382;2022-09-20T06:53:40;11.36;77.31
65245;DHT22;51846;48.692;2.382;2022-09-20T06:56:14;11.46;76.89
65245;DHT22;51846;48.692;2.382;2022-09-20T06:58:40;11.50;76.20
65245;DHT22;51846;48.692;2.382;2022-09-20T07:01:06;11.55;76.67
65245;DHT22;51846;48.692;2.382;2022-09-20T07:03:31;11.52;77.18
65245;DHT22;51846;48.692;2.382;2022-09-20T07:05:57;11.60;76.32
65245;DHT22;51846;48.692;2.382;2022-09-20T07:08:25;11.74;75.50
65245;DHT22;51846;48.692;2.382;2022-09-20T07:10:50;11.81;75.21
65245;DHT22;51846;48.692;2.382;2022-09-20T07:13:16;11.89;74.90
65245;DHT22;51846;48.692;2.382;2022-09-20T07:15:43;11.94;74.85
65245;DHT22;51846;48.692;2.382;2022-09-20T07:18:08;12.00;74.64
65245;DHT22;51846;48.692;2.382;2022-09-20T07:20:34;12.05;74.47
65245;DHT22;51846;48.692;2.382;2022-09-20T07:22:59;12.13;75.26
65245;DHT22;51846;48.692;2.382;2022-09-20T07:25:25;12.20;74.43
65245;DHT22;51846;48.692;2.382;2022-09-20T07:27:50;12.24;73.79
65245;DHT22;51846;48.692;2.382;2022-09-20T07:30:17;12.31;74.77
65245;DHT22;51846;48.692;2.382;2022-09-20T07:32:43;12.38;74.10
65245;DHT22;51846;48.692;2.382;2022-09-20T07:35:10;12.40;73.54
65245;DHT22;51846;48.692;2.382;2022-09-20T07:37:36;12.42;73.35
65245;DHT22;51846;48.692;2.382;2022-09-20T07:40:03;12.46;74.14
65245;DHT22;51846;48.692;2.382;2022-09-20T07:42:30;12.48;73.78
65245;DHT22;51846;48.692;2.382;2022-09-20T07:44:55;12.52;73.63
65245;DHT22;51846;48.692;2.382;2022-09-20T07:47:21;12.64;72.49
65245;DHT22;51846;48.692;2.382;2022-09-20T07:49:50;12.71;72.55
65245;DHT22;51846;48.692;2.382;2022-09-20T07:52:15;12.72;72.32
65245;DHT22;51846;48.692;2.382;2022-09-20T07:54:41;12.79;72.55
65245;DHT22;51846;48.692;2.382;2022-09-20T07:57:06;12.85;72.45
65245;DHT22;51846;48.692;2.382;2022-09-20T07:59:32;12.92;72.47
65245;DHT22;51846;48.692;2.382;2022-09-20T08:01:58;12.92;72.58
65245;DHT22;51846;48.692;2.382;2022-09-20T08:04:25;12.98;72.59
65245;DHT22;51846;48.692;2.382;2022-09-20T08:06:50;13.08;71.84
65245;DHT22;51846;48.692;2.382;2022-09-20T08:09:17;13.06;71.76
65245;DHT22;51846;48.692;2.382;2022-09-20T08:11:43;13.09;72.02
65245;DHT22;51846;48.692;2.382;2022-09-20T08:14:14;13.15;71.77
65245;DHT22;51846;48.692;2.382;2022-09-20T08:16:45;13.19;71.67
65245;DHT22;51846;48.692;2.382;2022-09-20T08:19:19;13.23;71.18
65245;DHT22;51846;48.692;2.382;2022-09-20T08:21:45;13.30;72.26
65245;DHT22;51846;48.692;2.382;2022-09-20T08:24:11;13.35;71.54
65245;DHT22;51846;48.692;2.382;2022-09-20T08:26:37;13.42;71.22
65245;DHT22;51846;48.692;2.382;2022-09-20T08:29:03;13.50;70.83
65245;DHT22;51846;48.692;2.382;2022-09-20T08:31:33;13.61;69.92
65245;DHT22;51846;48.692;2.382;2022-09-20T08:34:02;13.67;69.93
65245;DHT22;51846;48.692;2.382;2022-09-20T08:36:30;13.66;69.30
65245;DHT22;51846;48.692;2.382;2022-09-20T08:38:56;13.69;69.50
65245;DHT22;51846;48.692;2.382;2022-09-20T08:44:24;13.70;68.43
65245;DHT22;51846;48.692;2.382;2022-09-20T08:47:13;13.73;68.58
65245;DHT22;51846;48.692;2.382;2022-09-20T08:49:41;13.75;68.39
65245;DHT22;51846;48.692;2.382;2022-09-20T08:52:10;13.78;68.31
65245;DHT22;51846;48.692;2.382;2022-09-20T08:54:39;13.81;67.99
65245;DHT22;51846;48.692;2.382;2022-09-20T08:57:15;13.85;68.16
65245;DHT22;51846;48.692;2.382;2022-09-20T08:59:40;13.90;68.55
65245;DHT22;51846;48.692;2.382;2022-09-20T09:02:20;13.95;67.84
65245;DHT22;51846;48.692;2.382;2022-09-20T09:04:48;13.94;67.50
65245;DHT22;51846;48.692;2.382;2022-09-20T09:07:16;13.94;67.47
65245;DHT22;51846;48.692;2.382;2022-09-20T09:09:43;13.94;67.75
65245;DHT22;51846;48.692;2.382;2022-09-20T09:12:24;14.01;66.78
65245;DHT22;51846;48.692;2.382;2022-09-20T09:14:52;14.01;67.05
65245;DHT22;51846;48.692;2.382;2022-09-20T09:17:24;14.05;67.10
65245;DHT22;51846;48.692;2.382;2022-09-20T09:19:55;14.05;67.04
65245;DHT22;51846;48.692;2.382;2022-09-20T09:22:39;14.14;66.60
65245;DHT22;51846;48.692;2.382;2022-09-20T09:28:14;14.31;65.94
65245;DHT22;51846;48.692;2.382;2022-09-20T09:30:49;14.31;66.45
65245;DHT22;51846;48.692;2.382;2022-09-20T09:33:26;14.42;66.86
65245;DHT22;51846;48.692;2.382;2022-09-20T09:36:06;14.44;66.28
65245;DHT22;51846;48.692;2.382;2022-09-20T09:38:37;14.52;65.89
65245;DHT22;51846;48.692;2.382;2022-09-20T09:41:05;14.65;65.07
65245;DHT22;51846;48.692;2.382;2022-09-20T09:43:36;14.65;65.52
65245;DHT22;51846;48.692;2.382;2022-09-20T09:46:21;14.73;64.73
65245;DHT22;51846;48.692;2.382;2022-09-20T09:51:28;14.71;65.45
65245;DHT22;51846;48.692;2.382;2022-09-20T09:53:56;14.78;65.12
65245;DHT22;51846;48.692;2.382;2022-09-20T09:59:23;14.80;64.56
65245;DHT22;51846;48.692;2.382;2022-09-20T10:02:26;14.88;65.15
65245;DHT22;51846;48.692;2.382;2022-09-20T10:13:52;15.24;63.41
65245;DHT22;51846;48.692;2.382;2022-09-20T10:17:11;15.26;63.26
65245;DHT22;51846;48.692;2.382;2022-09-20T10:25:18;15.44;62.54
65245;DHT22;51846;48.692;2.382;2022-09-20T10:28:00;15.47;63.50
65245;DHT22;51846;48.692;2.382;2022-09-20T10:30:45;15.57;62.09
65245;DHT22;51846;48.692;2.382;2022-09-20T10:33:37;15.60;62.04
65245;DHT22;51846;48.692;2.382;2022-09-20T10:36:25;15.73;60.93
65245;DHT22;51846;48.692;2.382;2022-09-20T10:49:42;15.97;60.18
65245;DHT22;51846;48.692;2.382;2022-09-20T11:00:30;16.24;59.87
65245;DHT22;51846;48.692;2.382;2022-09-20T11:08:46;16.30;57.45
65245;DHT22;51846;48.692;2.382;2022-09-20T11:11:19;16.49;56.58
65245;DHT22;51846;48.692;2.382;2022-09-20T11:22:10;16.75;56.47
65245;DHT22;51846;48.692;2.382;2022-09-20T11:24:48;16.82;56.12
65245;DHT22;51846;48.692;2.382;2022-09-20T11:27:30;16.86;56.14
65245;DHT22;51846;48.692;2.382;2022-09-20T11:30:05;16.99;55.13
65245;DHT22;51846;48.692;2.382;2022-09-20T11:32:41;17.09;54.43
65245;DHT22;51846;48.692;2.382;2022-09-20T11:37:45;17.16;55.65
65245;DHT22;51846;48.692;2.382;2022-09-20T11:42:42;17.27;52.27
65245;DHT22;51846;48.692;2.382;2022-09-20T11:45:11;17.28;52.98
65245;DHT22;51846;48.692;2.382;2022-09-20T11:47:50;17.40;52.94
65245;DHT22;51846;48.692;2.382;2022-09-20T11:56:02;17.51;51.42
65245;DHT22;51846;48.692;2.382;2022-09-20T11:58:30;17.51;52.87
65245;DHT22;51846;48.692;2.382;2022-09-20T12:00:57;17.60;51.03
65245;DHT22;51846;48.692;2.382;2022-09-20T12:03:36;17.61;51.11
65245;DHT22;51846;48.692;2.382;2022-09-20T12:06:39;17.73;52.28
65245;DHT22;51846;48.692;2.382;2022-09-20T12:09:00;17.82;52.63
65245;DHT22;51846;48.692;2.382;2022-09-20T12:11:29;17.85;51.97
65245;DHT22;51846;48.692;2.382;2022-09-20T12:14:03;17.91;48.76
65245;DHT22;51846;48.692;2.382;2022-09-20T12:16:41;17.81;50.13
65245;DHT22;51846;48.692;2.382;2022-09-20T12:19:11;17.81;50.49
65245;DHT22;51846;48.692;2.382;2022-09-20T12:24:30;17.81;51.06
65245;DHT22;51846;48.692;2.382;2022-09-20T12:26:59;17.84;50.40
65245;DHT22;51846;48.692;2.382;2022-09-20T12:31:55;17.74;51.42
65245;DHT22;51846;48.692;2.382;2022-09-20T12:39:19;17.84;49.53
65245;DHT22;51846;48.692;2.382;2022-09-20T12:47:20;17.89;50.23
65245;DHT22;51846;48.692;2.382;2022-09-20T13:06:20;18.15;50.53
65245;DHT22;51846;48.692;2.382;2022-09-20T13:11:28;18.13;49.60
65245;DHT22;51846;48.692;2.382;2022-09-20T13:16:22;18.11;49.92
65245;DHT22;51846;48.692;2.382;2022-09-20T13:18:58;17.64;50.15
65245;DHT22;51846;48.692;2.382;2022-09-20T13:21:25;17.78;51.11
65245;DHT22;51846;48.692;2.382;2022-09-20T13:23:52;17.88;51.46
65245;DHT22;51846;48.692;2.382;2022-09-20T13:26:24;18.06;50.37
65245;DHT22;51846;48.692;2.382;2022-09-20T13:28:53;18.11;50.06
65245;DHT22;51846;48.692;2.382;2022-09-20T13:33:44;18.09;50.13
65245;DHT22;51846;48.692;2.382;2022-09-20T13:36:10;18.09;50.52
65245;DHT22;51846;48.692;2.382;2022-09-20T13:38:36;18.13;49.76
65245;DHT22;51846;48.692;2.382;2022-09-20T13:41:06;18.12;49.80
65245;DHT22;51846;48.692;2.382;2022-09-20T13:46:23;18.06;51.15
65245;DHT22;51846;48.692;2.382;2022-09-20T13:49:13;18.18;50.66
65245;DHT22;51846;48.692;2.382;2022-09-20T13:51:41;18.25;50.68
65245;DHT22;51846;48.692;2.382;2022-09-20T13:54:28;18.24;50.35
65245;DHT22;51846;48.692;2.382;2022-09-20T13:56:58;18.28;50.57
65245;DHT22;51846;48.692;2.382;2022-09-20T13:59:33;18.06;51.13
65245;DHT22;51846;48.692;2.382;2022-09-20T14:01:59;18.16;49.91
65245;DHT22;51846;48.692;2.382;2022-09-20T14:04:27;18.22;51.00
65245;DHT22;51846;48.692;2.382;2022-09-20T14:06:55;18.22;50.73
65245;DHT22;51846;48.692;2.382;2022-09-20T14:09:33;18.32;50.89
65245;DHT22;51846;48.692;2.382;2022-09-20T14:12:01;18.33;50.45
65245;DHT22;51846;48.692;2.382;2022-09-20T14:14:27;18.35;50.15
65245;DHT22;51846;48.692;2.382;2022-09-20T14:16:54;18.35;50.19
65245;DHT22;51846;48.692;2.382;2022-09-20T14:19:28;18.35;50.93
65245;DHT22;51846;48.692;2.382;2022-09-20T14:21:56;18.13;51.61
65245;DHT22;51846;48.692;2.382;2022-09-20T14:24:32;18.21;51.44
65245;DHT22;51846;48.692;2.382;2022-09-20T14:27:19;18.21;50.62
65245;DHT22;51846;48.692;2.382;2022-09-20T14:29:49;18.09;51.33
65245;DHT22;51846;48.692;2.382;2022-09-20T14:34:46;18.15;51.95
65245;DHT22;51846;48.692;2.382;2022-09-20T14:37:24;18.22;51.95
65245;DHT22;51846;48.692;2.382;2022-09-20T14:42:44;18.40;52.20
65245;DHT22;51846;48.692;2.382;2022-09-20T14:45:26;18.45;52.43
65245;DHT22;51846;48.692;2.382;2022-09-20T14:48:02;18.53;52.77
65245;DHT22;51846;48.692;2.382;2022-09-20T14:50:33;18.60;51.45
65245;DHT22;51846;48.692;2.382;2022-09-20T14:55:36;18.45;51.49
65245;DHT22;51846;48.692;2.382;2022-09-20T14:58:13;18.55;51.75
65245;DHT22;51846;48.692;2.382;2022-09-20T15:00:55;18.55;52.17
65245;DHT22;51846;48.692;2.382;2022-09-20T15:03:31;18.62;52.12
65245;DHT22;51846;48.692;2.382;2022-09-20T15:05:58;18.66;50.84
65245;DHT22;51846;48.692;2.382;2022-09-20T15:08:24;18.60;51.19
65245;DHT22;51846;48.692;2.382;2022-09-20T15:10:49;18.56;52.06
65245;DHT22;51846;48.692;2.382;2022-09-20T15:13:15;18.59;52.66
65245;DHT22;51846;48.692;2.382;2022-09-20T15:15:41;18.55;51.61
65245;DHT22;51846;48.692;2.382;2022-09-20T15:20:46;18.63;51.92
65245;DHT22;51846;48.692;2.382;2022-09-20T15:23:12;18.53;52.31
65245;DHT22;51846;48.692;2.382;2022-09-20T15:25:37;18.53;52.14
65245;DHT22;51846;48.692;2.382;2022-09-20T15:28:02;18.52;51.55
65245;DHT22;51846;48.692;2.382;2022-09-20T15:30:28;18.50;51.47
65245;DHT22;51846;48.692;2.382;2022-09-20T15:32:54;18.40;51.97
65245;DHT22;51846;48.692;2.382;2022-09-20T15:35:19;18.45;52.47
65245;DHT22;51846;48.692;2.382;2022-09-20T15:37:45;18.45;52.24
65245;DHT22;51846;48.692;2.382;2022-09-20T15:40:10;18.40;53.05
65245;DHT22;51846;48.692;2.382;2022-09-20T15:42:36;18.35;53.58
65245;DHT22;51846;48.692;2.382;2022-09-20T15:45:06;18.35;52.72
65245;DHT22;51846;48.692;2.382;2022-09-20T15:47:36;18.32;53.04
65245;DHT22;51846;48.692;2.382;2022-09-20T15:50:04;18.29;53.27
65245;DHT22;51846;48.692;2.382;2022-09-20T15:52:38;18.28;52.95
65245;DHT22;51846;48.692;2.382;2022-09-20T15:55:07;18.22;53.76
65245;DHT22;51846;48.692;2.382;2022-09-20T15:57:33;18.22;52.87
65245;DHT22;51846;48.692;2.382;2022-09-20T15:59:59;18.22;53.38
65245;DHT22;51846;48.692;2.382;2022-09-20T16:02:26;18.26;53.46
65245;DHT22;51846;48.692;2.382;2022-09-20T16:04:52;18.26;53.34
65245;DHT22;51846;48.692;2.382;2022-09-20T16:07:21;18.25;54.33
65245;DHT22;51846;48.692;2.382;2022-09-20T16:09:53;18.21;53.84
65245;DHT22;51846;48.692;2.382;2022-09-20T16:12:23;18.24;53.88
65245;DHT22;51846;48.692;2.382;2022-09-20T16:14:49;18.24;55.23
65245;DHT22;51846;48.692;2.382;2022-09-20T16:17:16;18.25;54.24
65245;DHT22;51846;48.692;2.382;2022-09-20T16:19:42;18.24;54.32
65245;DHT22;51846;48.692;2.382;2022-09-20T16:22:10;18.25;54.39
65245;DHT22;51846;48.692;2.382;2022-09-20T16:24:36;18.22;54.35
65245;DHT22;51846;48.692;2.382;2022-09-20T16:27:04;18.18;54.49
65245;DHT22;51846;48.692;2.382;2022-09-20T16:29:31;18.15;54.42
65245;DHT22;51846;48.692;2.382;2022-09-20T16:31:57;18.13;54.95
65245;DHT22;51846;48.692;2.382;2022-09-20T16:34:30;18.09;54.83
65245;DHT22;51846;48.692;2.382;2022-09-20T16:37:08;18.12;54.71
65245;DHT22;51846;48.692;2.382;2022-09-20T16:39:36;18.08;55.38
65245;DHT22;51846;48.692;2.382;2022-09-20T16:42:04;18.04;56.06
65245;DHT22;51846;48.692;2.382;2022-09-20T16:44:34;18.08;55.15
65245;DHT22;51846;48.692;2.382;2022-09-20T16:47:01;18.04;55.31
65245;DHT22;51846;48.692;2.382;2022-09-20T16:49:27;17.97;56.44
65245;DHT22;51846;48.692;2.382;2022-09-20T16:51:53;17.85;55.50
65245;DHT22;51846;48.692;2.382;2022-09-20T16:54:18;17.84;55.55
65245;DHT22;51846;48.692;2.382;2022-09-20T16:56:48;17.84;55.58
65245;DHT22;51846;48.692;2.382;2022-09-20T16:59:17;17.81;55.56
65245;DHT22;51846;48.692;2.382;2022-09-20T17:01:43;17.88;55.51
65245;DHT22;51846;48.692;2.382;2022-09-20T17:04:09;17.75;56.21
65245;DHT22;51846;48.692;2.382;2022-09-20T17:06:37;17.81;55.94
65245;DHT22;51846;48.692;2.382;2022-09-20T17:09:06;17.85;55.82
65245;DHT22;51846;48.692;2.382;2022-09-20T17:11:35;17.79;55.55
65245;DHT22;51846;48.692;2.382;2022-09-20T17:14:00;17.81;55.71
65245;DHT22;51846;48.692;2.382;2022-09-20T17:16:28;17.70;56.16
65245;DHT22;51846;48.692;2.382;2022-09-20T17:18:56;17.71;56.73
65245;DHT22;51846;48.692;2.382;2022-09-20T17:21:22;17.75;57.06
65245;DHT22;51846;48.692;2.382;2022-09-20T17:23:50;17.74;56.73
65245;DHT22;51846;48.692;2.382;2022-09-20T17:26:24;17.74;56.30
65245;DHT22;51846;48.692;2.382;2022-09-20T17:28:53;17.75;56.77
65245;DHT22;51846;48.692;2.382;2022-09-20T17:31:21;17.74;56.82
65245;DHT22;51846;48.692;2.382;2022-09-20T17:33:48;17.70;56.95
65245;DHT22;51846;48.692;2.382;2022-09-20T17:36:16;17.68;56.79
65245;DHT22;51846;48.692;2.382;2022-09-20T17:38:44;17.68;56.95
65245;DHT22;51846;48.692;2.382;2022-09-20T17:41:12;17.67;56.87
65245;DHT22;51846;48.692;2.382;2022-09-20T17:43:38;17.67;57.40
65245;DHT22;51846;48.692;2.382;2022-09-20T17:46:28;17.61;57.70
65245;DHT22;51846;48.692;2.382;2022-09-20T17:49:00;17.63;57.68
65245;DHT22;51846;48.692;2.382;2022-09-20T17:51:30;17.60;57.87
65245;DHT22;51846;48.692;2.382;2022-09-20T17:53:56;17.60;58.21
65245;DHT22;51846;48.692;2.382;2022-09-20T17:56:22;17.60;58.25
65245;DHT22;51846;48.692;2.382;2022-09-20T17:58:56;17.57;58.17
65245;DHT22;51846;48.692;2.382;2022-09-20T18:01:22;17.50;58.59
65245;DHT22;51846;48.692;2.382;2022-09-20T18:03:48;17.50;58.94
65245;DHT22;51846;48.692;2.382;2022-09-20T18:06:54;17.44;59.17
65245;DHT22;51846;48.692;2.382;2022-09-20T18:09:15;17.41;59.41
65245;DHT22;51846;48.692;2.382;2022-09-20T18:11:42;17.35;59.69
65245;DHT22;51846;48.692;2.382;2022-09-20T18:14:10;17.34;60.12
65245;DHT22;51846;48.692;2.382;2022-09-20T18:16:36;17.33;60.35
65245;DHT22;51846;48.692;2.382;2022-09-20T18:19:03;17.22;60.51
65245;DHT22;51846;48.692;2.382;2022-09-20T18:21:30;17.23;60.98
65245;DHT22;51846;48.692;2.382;2022-09-20T18:23:57;17.17;61.01
65245;DHT22;51846;48.692;2.382;2022-09-20T18:26:25;17.13;61.86
65245;DHT22;51846;48.692;2.382;2022-09-20T18:31:16;17.04;61.53
65245;DHT22;51846;48.692;2.382;2022-09-20T18:33:43;16.99;62.01
65245;DHT22;51846;48.692;2.382;2022-09-20T18:36:09;17.00;61.51
65245;DHT22;51846;48.692;2.382;2022-09-20T18:38:35;16.97;62.46
65245;DHT22;51846;48.692;2.382;2022-09-20T18:41:01;16.93;62.74
65245;DHT22;51846;48.692;2.382;2022-09-20T18:43:27;16.87;63.20
65245;DHT22;51846;48.692;2.382;2022-09-20T18:45:54;16.84;63.16
65245;DHT22;51846;48.692;2.382;2022-09-20T18:48:21;16.82;63.20
65245;DHT22;51846;48.692;2.382;2022-09-20T18:51:01;16.76;63.44
65245;DHT22;51846;48.692;2.382;2022-09-20T18:53:29;16.69;63.74
65245;DHT22;51846;48.692;2.382;2022-09-20T18:55:55;16.63;64.05
65245;DHT22;51846;48.692;2.382;2022-09-20T18:58:22;16.58;64.14
65245;DHT22;51846;48.692;2.382;2022-09-20T19:04:26;16.47;64.63
65245;DHT22;51846;48.692;2.382;2022-09-20T19:07:01;16.39;64.84
65245;DHT22;51846;48.692;2.382;2022-09-20T19:15:14;16.25;65.54
65245;DHT22;51846;48.692;2.382;2022-09-20T19:23:48;16.07;66.79
65245;DHT22;51846;48.692;2.382;2022-09-20T19:26:26;16.00;66.91
65245;DHT22;51846;48.692;2.382;2022-09-20T19:28:54;15.98;67.20
65245;DHT22;51846;48.692;2.382;2022-09-20T19:31:24;15.88;67.50
65245;DHT22;51846;48.692;2.382;2022-09-20T19:33:51;15.83;67.89
65245;DHT22;51846;48.692;2.382;2022-09-20T19:36:24;15.78;68.21
65245;DHT22;51846;48.692;2.382;2022-09-20T19:39:35;15.71;68.60
65245;DHT22;51846;48.692;2.382;2022-09-20T19:44:59;15.61;68.99
65245;DHT22;51846;48.692;2.382;2022-09-20T19:50:43;15.50;69.29
65245;DHT22;51846;48.692;2.382;2022-09-20T19:53:16;15.46;69.31
65245;DHT22;51846;48.692;2.382;2022-09-20T19:55:46;15.39;69.78
65245;DHT22;51846;48.692;2.382;2022-09-20T19:58:13;15.34;69.71
65245;DHT22;51846;48.692;2.382;2022-09-20T20:00:39;15.30;70.11
65245;DHT22;51846;48.692;2.382;2022-09-20T20:03:04;15.27;70.23
65245;DHT22;51846;48.692;2.382;2022-09-20T20:05:30;15.24;70.37
65245;DHT22;51846;48.692;2.382;2022-09-20T20:10:37;15.13;70.76
65245;DHT22;51846;48.692;2.382;2022-09-20T20:16:10;15.06;71.09
65245;DHT22;51846;48.692;2.382;2022-09-20T20:18:56;15.02;71.18
65245;DHT22;51846;48.692;2.382;2022-09-20T20:27:04;14.83;72.10
65245;DHT22;51846;48.692;2.382;2022-09-20T20:29:32;14.79;72.25
65245;DHT22;51846;48.692;2.382;2022-09-20T20:31:57;14.75;72.46
65245;DHT22;51846;48.692;2.382;2022-09-20T20:34:22;14.69;72.48
65245;DHT22;51846;48.692;2.382;2022-09-20T20:36:50;14.68;72.57
65245;DHT22;51846;48.692;2.382;2022-09-20T20:39:24;14.64;72.74
65245;DHT22;51846;48.692;2.382;2022-09-20T20:41:50;14.61;72.83
65245;DHT22;51846;48.692;2.382;2022-09-20T20:44:17;14.52;73.03
65245;DHT22;51846;48.692;2.382;2022-09-20T20:46:43;14.51;73.24
65245;DHT22;51846;48.692;2.382;2022-09-20T20:49:08;14.41;73.52
65245;DHT22;51846;48.692;2.382;2022-09-20T20:51:33;14.39;73.57
65245;DHT22;51846;48.692;2.382;2022-09-20T20:53:59;14.35;73.56
65245;DHT22;51846;48.692;2.382;2022-09-20T20:56:27;14.35;73.57
65245;DHT22;51846;48.692;2.382;2022-09-20T20:58:53;14.28;73.67
65245;DHT22;51846;48.692;2.382;2022-09-20T21:01:25;14.25;73.86
65245;DHT22;51846;48.692;2.382;2022-09-20T21:03:52;14.18;74.20
65245;DHT22;51846;48.692;2.382;2022-09-20T21:06:19;14.15;74.33
65245;DHT22;51846;48.692;2.382;2022-09-20T21:08:46;14.11;74.38
65245;DHT22;51846;48.692;2.382;2022-09-20T21:11:20;14.04;74.57
65245;DHT22;51846;48.692;2.382;2022-09-20T21:13:48;14.00;74.76
65245;DHT22;51846;48.692;2.382;2022-09-20T21:16:15;13.93;74.80
65245;DHT22;51846;48.692;2.382;2022-09-20T21:18:43;13.90;74.91
65245;DHT22;51846;48.692;2.382;2022-09-20T21:23:46;13.84;75.19
65245;DHT22;51846;48.692;2.382;2022-09-20T21:26:12;13.77;75.37
65245;DHT22;51846;48.692;2.382;2022-09-20T21:28:42;13.75;75.55
65245;DHT22;51846;48.692;2.382;2022-09-20T21:31:09;13.73;75.70
65245;DHT22;51846;48.692;2.382;2022-09-20T21:33:37;13.64;75.71
65245;DHT22;51846;48.692;2.382;2022-09-20T21:36:03;13.63;75.67
65245;DHT22;51846;48.692;2.382;2022-09-20T21:38:29;13.61;75.84
65245;DHT22;51846;48.692;2.382;2022-09-20T21:43:32;13.49;76.22